sensor_id;sensor_type;location;lat;lon;timestamp;P1;durP1;ratioP1;P2;durP2;ratioP2
20454;SDS011;10386;54.314;10.022;2022-09-09T00:00:47;50.83;;;25.00;;
20454;SDS011;10386;54.314;10.022;2022-09-09T00:03:25;50.37;;;23.50;;
20454;SDS011;10386;54.314;10.022;2022-09-09T00:08:30;53.23;;;25.63;;
20454;SDS011;10386;54.314;10.022;2022-09-09T00:11:19;50.77;;;25.37;;
20454;SDS011;10386;54.314;10.022;2022-09-09T00:13:57;47.93;;;23.90;;
20454;SDS011;10386;54.314;10.022;2022-09-09T00:16:27;51.57;;;25.07;;
20454;SDS011;10386;54.314;10.022;2022-09-09T00:24:38;48.87;;;25.47;;
20454;SDS011;10386;54.314;10.022;2022-09-09T00:27:19;48.30;;;24.07;;
20454;SDS011;10386;54.314;10.022;2022-09-09T00:30:28;49.07;;;23.67;;
20454;SDS011;10386;54.314;10.022;2022-09-09T00:33:01;48.87;;;24.40;;
20454;SDS011;10386;54.314;10.022;2022-09-09T00:35:40;50.20;;;24.57;;
20454;SDS011;10386;54.314;10.022;2022-09-09T00:38:12;48.20;;;23.63;;
20454;SDS011;10386;54.314;10.022;2022-09-09T00:40:45;50.47;;;25.33;;
20454;SDS011;10386;54.314;10.022;2022-09-09T00:48:33;48.90;;;24.50;;
20454;SDS011;10386;54.314;10.022;2022-09-09T00:51:19;58.23;;;26.20;;
20454;SDS011;10386;54.314;10.022;2022-09-09T00:54:26;57.73;;;26.17;;
20454;SDS011;10386;54.314;10.022;2022-09-09T00:57:16;55.33;;;25.93;;
20454;SDS011;10386;54.314;10.022;2022-09-09T01:08:06;50.17;;;25.40;;
20454;SDS011;10386;54.314;10.022;2022-09-09T01:10:52;53.83;;;23.97;;
20454;SDS011;10386;54.314;10.022;2022-09-09T01:13:22;53.47;;;25.83;;
20454;SDS011;10386;54.314;10.022;2022-09-09T01:15:51;53.63;;;25.43;;
20454;SDS011;10386;54.314;10.022;2022-09-09T01:18:27;49.93;;;24.03;;
20454;SDS011;10386;54.314;10.022;2022-09-09T01:21:04;51.53;;;25.73;;
20454;SDS011;10386;54.314;10.022;2022-09-09T01:24:01;51.90;;;24.23;;
20454;SDS011;10386;54.314;10.022;2022-09-09T01:26:41;56.63;;;25.10;;
20454;SDS011;10386;54.314;10.022;2022-09-09T01:29:10;53.00;;;24.50;;
20454;SDS011;10386;54.314;10.022;2022-09-09T01:31:51;49.63;;;24.33;;
20454;SDS011;10386;54.314;10.022;2022-09-09T01:34:25;50.90;;;24.07;;
20454;SDS011;10386;54.314;10.022;2022-09-09T01:37:07;52.33;;;24.90;;
20454;SDS011;10386;54.314;10.022;2022-09-09T01:39:38;54.80;;;26.93;;
20454;SDS011;10386;54.314;10.022;2022-09-09T01:42:07;52.30;;;25.57;;
20454;SDS011;10386;54.314;10.022;2022-09-09T01:44:36;49.30;;;23.33;;
20454;SDS011;10386;54.314;10.022;2022-09-09T01:47:04;52.57;;;25.20;;
20454;SDS011;10386;54.314;10.022;2022-09-09T01:49:31;49.13;;;24.43;;
20454;SDS011;10386;54.314;10.022;2022-09-09T01:51:59;55.80;;;25.57;;
20454;SDS011;10386;54.314;10.022;2022-09-09T01:54:26;47.13;;;23.17;;
20454;SDS011;10386;54.314;10.022;2022-09-09T02:02:26;46.93;;;22.70;;
20454;SDS011;10386;54.314;10.022;2022-09-09T02:05:16;48.80;;;23.73;;
20454;SDS011;10386;54.314;10.022;2022-09-09T02:08:05;51.27;;;24.50;;
20454;SDS011;10386;54.314;10.022;2022-09-09T02:10:39;45.77;;;22.97;;
20454;SDS011;10386;54.314;10.022;2022-09-09T02:13:12;48.70;;;23.60;;
20454;SDS011;10386;54.314;10.022;2022-09-09T02:18:28;48.47;;;23.50;;
20454;SDS011;10386;54.314;10.022;2022-09-09T02:20:58;47.03;;;23.17;;
20454;SDS011;10386;54.314;10.022;2022-09-09T02:23:26;49.57;;;22.53;;
20454;SDS011;10386;54.314;10.022;2022-09-09T02:25:55;48.43;;;22.90;;
20454;SDS011;10386;54.314;10.022;2022-09-09T02:28:25;48.43;;;22.63;;
20454;SDS011;10386;54.314;10.022;2022-09-09T02:30:55;53.10;;;24.00;;
20454;SDS011;10386;54.314;10.022;2022-09-09T02:33:25;47.70;;;23.20;;
20454;SDS011;10386;54.314;10.022;2022-09-09T02:35:55;56.97;;;23.60;;
20454;SDS011;10386;54.314;10.022;2022-09-09T02:38:28;54.20;;;24.33;;
20454;SDS011;10386;54.314;10.022;2022-09-09T02:40:58;48.40;;;23.33;;
20454;SDS011;10386;54.314;10.022;2022-09-09T02:43:24;49.97;;;25.00;;
20454;SDS011;10386;54.314;10.022;2022-09-09T02:45:53;51.07;;;23.30;;
20454;SDS011;10386;54.314;10.022;2022-09-09T02:51:20;54.23;;;23.27;;
20454;SDS011;10386;54.314;10.022;2022-09-09T02:54:00;55.47;;;23.53;;
20454;SDS011;10386;54.314;10.022;2022-09-09T02:56:39;57.30;;;24.17;;
20454;SDS011;10386;54.314;10.022;2022-09-09T02:59:08;52.03;;;24.10;;
20454;SDS011;10386;54.314;10.022;2022-09-09T03:01:36;58.33;;;24.53;;
20454;SDS011;10386;54.314;10.022;2022-09-09T03:04:03;65.97;;;25.40;;
20454;SDS011;10386;54.314;10.022;2022-09-09T03:06:31;58.90;;;25.17;;
20454;SDS011;10386;54.314;10.022;2022-09-09T03:08:58;60.47;;;25.63;;
20454;SDS011;10386;54.314;10.022;2022-09-09T03:11:26;62.10;;;26.97;;
20454;SDS011;10386;54.314;10.022;2022-09-09T03:13:54;68.37;;;26.53;;
20454;SDS011;10386;54.314;10.022;2022-09-09T03:16:25;65.17;;;26.77;;
20454;SDS011;10386;54.314;10.022;2022-09-09T03:18:52;69.50;;;28.30;;
20454;SDS011;10386;54.314;10.022;2022-09-09T03:21:19;71.03;;;28.90;;
20454;SDS011;10386;54.314;10.022;2022-09-09T03:23:46;78.40;;;29.27;;
20454;SDS011;10386;54.314;10.022;2022-09-09T03:26:13;72.97;;;27.90;;
20454;SDS011;10386;54.314;10.022;2022-09-09T03:28:41;73.20;;;29.27;;
20454;SDS011;10386;54.314;10.022;2022-09-09T03:31:08;79.70;;;29.33;;
20454;SDS011;10386;54.314;10.022;2022-09-09T03:33:38;70.27;;;27.73;;
20454;SDS011;10386;54.314;10.022;2022-09-09T03:36:07;73.47;;;28.63;;
20454;SDS011;10386;54.314;10.022;2022-09-09T03:38:37;72.43;;;27.17;;
20454;SDS011;10386;54.314;10.022;2022-09-09T03:41:04;75.33;;;28.90;;
20454;SDS011;10386;54.314;10.022;2022-09-09T03:43:32;68.23;;;26.67;;
20454;SDS011;10386;54.314;10.022;2022-09-09T03:45:59;72.27;;;29.73;;
20454;SDS011;10386;54.314;10.022;2022-09-09T03:48:27;73.67;;;28.33;;
20454;SDS011;10386;54.314;10.022;2022-09-09T03:50:55;73.90;;;28.00;;
20454;SDS011;10386;54.314;10.022;2022-09-09T03:53:27;79.83;;;29.10;;
20454;SDS011;10386;54.314;10.022;2022-09-09T03:55:55;69.87;;;27.50;;
20454;SDS011;10386;54.314;10.022;2022-09-09T03:58:22;62.47;;;27.30;;
20454;SDS011;10386;54.314;10.022;2022-09-09T04:01:06;59.70;;;25.63;;
20454;SDS011;10386;54.314;10.022;2022-09-09T04:03:37;59.47;;;25.63;;
20454;SDS011;10386;54.314;10.022;2022-09-09T04:06:04;57.77;;;24.27;;
20454;SDS011;10386;54.314;10.022;2022-09-09T04:08:34;56.10;;;23.70;;
20454;SDS011;10386;54.314;10.022;2022-09-09T04:11:02;56.73;;;24.20;;
20454;SDS011;10386;54.314;10.022;2022-09-09T04:13:33;51.13;;;22.60;;
20454;SDS011;10386;54.314;10.022;2022-09-09T04:16:01;54.30;;;23.10;;
20454;SDS011;10386;54.314;10.022;2022-09-09T04:18:30;52.27;;;23.00;;
20454;SDS011;10386;54.314;10.022;2022-09-09T04:20:57;54.37;;;22.70;;
20454;SDS011;10386;54.314;10.022;2022-09-09T04:23:25;57.40;;;24.60;;
20454;SDS011;10386;54.314;10.022;2022-09-09T04:25:55;61.13;;;24.20;;
20454;SDS011;10386;54.314;10.022;2022-09-09T04:28:24;57.10;;;22.53;;
20454;SDS011;10386;54.314;10.022;2022-09-09T04:30:53;68.07;;;24.47;;
20454;SDS011;10386;54.314;10.022;2022-09-09T04:33:19;61.20;;;23.87;;
20454;SDS011;10386;54.314;10.022;2022-09-09T04:35:51;65.13;;;24.63;;
20454;SDS011;10386;54.314;10.022;2022-09-09T04:38:20;63.83;;;26.37;;
20454;SDS011;10386;54.314;10.022;2022-09-09T04:40:49;59.50;;;23.97;;
20454;SDS011;10386;54.314;10.022;2022-09-09T04:43:17;63.17;;;24.43;;
20454;SDS011;10386;54.314;10.022;2022-09-09T04:45:48;63.17;;;25.40;;
20454;SDS011;10386;54.314;10.022;2022-09-09T04:48:16;63.77;;;25.13;;
20454;SDS011;10386;54.314;10.022;2022-09-09T04:50:43;66.73;;;25.77;;
20454;SDS011;10386;54.314;10.022;2022-09-09T04:53:10;66.63;;;25.60;;
20454;SDS011;10386;54.314;10.022;2022-09-09T04:55:37;71.00;;;26.43;;
20454;SDS011;10386;54.314;10.022;2022-09-09T04:58:04;67.80;;;25.63;;
20454;SDS011;10386;54.314;10.022;2022-09-09T05:00:33;76.80;;;26.73;;
20454;SDS011;10386;54.314;10.022;2022-09-09T05:03:02;67.30;;;26.63;;
20454;SDS011;10386;54.314;10.022;2022-09-09T05:05:32;73.97;;;26.17;;
20454;SDS011;10386;54.314;10.022;2022-09-09T05:08:05;72.47;;;26.67;;
20454;SDS011;10386;54.314;10.022;2022-09-09T05:10:38;74.00;;;27.07;;
20454;SDS011;10386;54.314;10.022;2022-09-09T05:13:05;76.63;;;28.03;;
20454;SDS011;10386;54.314;10.022;2022-09-09T05:15:32;74.10;;;26.97;;
20454;SDS011;10386;54.314;10.022;2022-09-09T05:18:00;84.50;;;28.40;;
20454;SDS011;10386;54.314;10.022;2022-09-09T05:20:32;77.47;;;28.63;;
20454;SDS011;10386;54.314;10.022;2022-09-09T05:22:59;82.07;;;30.03;;
20454;SDS011;10386;54.314;10.022;2022-09-09T05:25:26;79.27;;;28.63;;
20454;SDS011;10386;54.314;10.022;2022-09-09T05:27:52;77.20;;;29.10;;
20454;SDS011;10386;54.314;10.022;2022-09-09T05:30:21;78.37;;;28.50;;
20454;SDS011;10386;54.314;10.022;2022-09-09T05:32:49;78.50;;;29.10;;
20454;SDS011;10386;54.314;10.022;2022-09-09T05:35:16;71.63;;;28.67;;
20454;SDS011;10386;54.314;10.022;2022-09-09T05:37:45;83.90;;;30.77;;
20454;SDS011;10386;54.314;10.022;2022-09-09T05:40:12;86.10;;;32.20;;
20454;SDS011;10386;54.314;10.022;2022-09-09T05:42:39;90.63;;;31.93;;
20454;SDS011;10386;54.314;10.022;2022-09-09T05:45:08;92.07;;;33.33;;
20454;SDS011;10386;54.314;10.022;2022-09-09T05:47:36;96.13;;;32.53;;
20454;SDS011;10386;54.314;10.022;2022-09-09T05:50:03;90.30;;;32.83;;
20454;SDS011;10386;54.314;10.022;2022-09-09T05:52:31;92.27;;;32.73;;
20454;SDS011;10386;54.314;10.022;2022-09-09T05:54:58;84.97;;;30.60;;
20454;SDS011;10386;54.314;10.022;2022-09-09T05:57:25;84.03;;;30.73;;
20454;SDS011;10386;54.314;10.022;2022-09-09T05:59:52;84.37;;;31.23;;
20454;SDS011;10386;54.314;10.022;2022-09-09T06:02:20;79.33;;;30.40;;
20454;SDS011;10386;54.314;10.022;2022-09-09T06:04:47;78.30;;;28.47;;
20454;SDS011;10386;54.314;10.022;2022-09-09T06:07:13;81.23;;;29.27;;
20454;SDS011;10386;54.314;10.022;2022-09-09T06:09:40;77.93;;;28.90;;
20454;SDS011;10386;54.314;10.022;2022-09-09T06:12:07;77.17;;;29.00;;
20454;SDS011;10386;54.314;10.022;2022-09-09T06:14:35;72.37;;;29.10;;
20454;SDS011;10386;54.314;10.022;2022-09-09T06:17:03;70.67;;;27.63;;
20454;SDS011;10386;54.314;10.022;2022-09-09T06:19:31;73.03;;;27.63;;
20454;SDS011;10386;54.314;10.022;2022-09-09T06:21:58;76.53;;;28.33;;
20454;SDS011;10386;54.314;10.022;2022-09-09T06:24:25;79.80;;;29.37;;
20454;SDS011;10386;54.314;10.022;2022-09-09T06:26:51;81.87;;;28.83;;
20454;SDS011;10386;54.314;10.022;2022-09-09T06:29:18;74.23;;;28.97;;
20454;SDS011;10386;54.314;10.022;2022-09-09T06:31:45;80.57;;;29.90;;
20454;SDS011;10386;54.314;10.022;2022-09-09T06:34:12;83.00;;;29.87;;
20454;SDS011;10386;54.314;10.022;2022-09-09T06:36:39;77.83;;;29.80;;
20454;SDS011;10386;54.314;10.022;2022-09-09T06:39:06;86.23;;;31.07;;
20454;SDS011;10386;54.314;10.022;2022-09-09T06:41:40;77.90;;;28.87;;
20454;SDS011;10386;54.314;10.022;2022-09-09T06:44:09;92.13;;;30.17;;
20454;SDS011;10386;54.314;10.022;2022-09-09T06:46:38;85.03;;;30.63;;
20454;SDS011;10386;54.314;10.022;2022-09-09T06:49:07;87.70;;;30.20;;
20454;SDS011;10386;54.314;10.022;2022-09-09T06:51:35;77.33;;;29.57;;
20454;SDS011;10386;54.314;10.022;2022-09-09T06:54:03;88.37;;;32.40;;
20454;SDS011;10386;54.314;10.022;2022-09-09T06:56:31;82.83;;;29.97;;
20454;SDS011;10386;54.314;10.022;2022-09-09T06:59:00;79.73;;;30.23;;
20454;SDS011;10386;54.314;10.022;2022-09-09T07:01:34;84.67;;;30.60;;
20454;SDS011;10386;54.314;10.022;2022-09-09T07:04:02;78.33;;;30.10;;
20454;SDS011;10386;54.314;10.022;2022-09-09T07:06:35;82.03;;;28.97;;
20454;SDS011;10386;54.314;10.022;2022-09-09T07:09:05;79.03;;;29.53;;
20454;SDS011;10386;54.314;10.022;2022-09-09T07:11:37;71.33;;;28.10;;
20454;SDS011;10386;54.314;10.022;2022-09-09T07:14:11;79.40;;;29.17;;
20454;SDS011;10386;54.314;10.022;2022-09-09T07:16:41;67.80;;;28.50;;
20454;SDS011;10386;54.314;10.022;2022-09-09T07:19:08;70.77;;;28.13;;
20454;SDS011;10386;54.314;10.022;2022-09-09T07:21:35;65.43;;;25.60;;
20454;SDS011;10386;54.314;10.022;2022-09-09T07:24:02;64.83;;;28.30;;
20454;SDS011;10386;54.314;10.022;2022-09-09T07:26:33;65.80;;;27.13;;
20454;SDS011;10386;54.314;10.022;2022-09-09T07:29:01;66.70;;;28.17;;
20454;SDS011;10386;54.314;10.022;2022-09-09T07:31:31;63.83;;;27.57;;
20454;SDS011;10386;54.314;10.022;2022-09-09T07:34:01;59.10;;;26.63;;
20454;SDS011;10386;54.314;10.022;2022-09-09T07:36:35;63.50;;;27.67;;
20454;SDS011;10386;54.314;10.022;2022-09-09T07:39:08;64.60;;;26.53;;
20454;SDS011;10386;54.314;10.022;2022-09-09T07:41:41;56.03;;;25.40;;
20454;SDS011;10386;54.314;10.022;2022-09-09T07:44:11;62.13;;;26.30;;
20454;SDS011;10386;54.314;10.022;2022-09-09T07:46:40;58.07;;;27.20;;
20454;SDS011;10386;54.314;10.022;2022-09-09T07:49:08;54.80;;;26.93;;
20454;SDS011;10386;54.314;10.022;2022-09-09T07:51:42;61.20;;;27.37;;
20454;SDS011;10386;54.314;10.022;2022-09-09T07:54:12;53.97;;;24.53;;
20454;SDS011;10386;54.314;10.022;2022-09-09T07:56:41;53.30;;;25.60;;
20454;SDS011;10386;54.314;10.022;2022-09-09T07:59:08;50.40;;;24.47;;
20454;SDS011;10386;54.314;10.022;2022-09-09T08:01:40;52.50;;;24.73;;
20454;SDS011;10386;54.314;10.022;2022-09-09T08:04:10;46.80;;;22.60;;
20454;SDS011;10386;54.314;10.022;2022-09-09T08:07:04;43.67;;;22.37;;
20454;SDS011;10386;54.314;10.022;2022-09-09T08:09:30;46.57;;;22.77;;
20454;SDS011;10386;54.314;10.022;2022-09-09T08:11:58;43.13;;;21.43;;
20454;SDS011;10386;54.314;10.022;2022-09-09T08:14:28;43.83;;;22.00;;
20454;SDS011;10386;54.314;10.022;2022-09-09T08:16:56;42.80;;;21.17;;
20454;SDS011;10386;54.314;10.022;2022-09-09T08:19:23;37.07;;;19.73;;
20454;SDS011;10386;54.314;10.022;2022-09-09T08:21:50;39.40;;;20.27;;
20454;SDS011;10386;54.314;10.022;2022-09-09T08:24:17;39.70;;;20.13;;
20454;SDS011;10386;54.314;10.022;2022-09-09T08:26:47;38.03;;;20.70;;
20454;SDS011;10386;54.314;10.022;2022-09-09T08:29:17;41.97;;;20.53;;
20454;SDS011;10386;54.314;10.022;2022-09-09T08:31:49;34.90;;;20.13;;
20454;SDS011;10386;54.314;10.022;2022-09-09T08:34:19;34.63;;;19.27;;
20454;SDS011;10386;54.314;10.022;2022-09-09T08:36:49;36.10;;;18.37;;
20454;SDS011;10386;54.314;10.022;2022-09-09T08:39:18;35.87;;;18.37;;
20454;SDS011;10386;54.314;10.022;2022-09-09T08:41:53;33.97;;;17.57;;
20454;SDS011;10386;54.314;10.022;2022-09-09T08:52:54;29.37;;;17.27;;
20454;SDS011;10386;54.314;10.022;2022-09-09T08:55:44;28.43;;;15.70;;
20454;SDS011;10386;54.314;10.022;2022-09-09T08:58:28;31.03;;;15.77;;
20454;SDS011;10386;54.314;10.022;2022-09-09T09:12:16;31.57;;;18.37;;
20454;SDS011;10386;54.314;10.022;2022-09-09T09:14:47;32.83;;;20.00;;
20454;SDS011;10386;54.314;10.022;2022-09-09T09:17:17;30.37;;;19.47;;
20454;SDS011;10386;54.314;10.022;2022-09-09T09:19:46;28.60;;;18.47;;
20454;SDS011;10386;54.314;10.022;2022-09-09T09:24:54;29.27;;;19.07;;
20454;SDS011;10386;54.314;10.022;2022-09-09T09:27:31;32.23;;;20.00;;
20454;SDS011;10386;54.314;10.022;2022-09-09T09:30:00;37.20;;;20.30;;
20454;SDS011;10386;54.314;10.022;2022-09-09T09:32:59;34.97;;;21.50;;
20454;SDS011;10386;54.314;10.022;2022-09-09T09:35:33;33.17;;;21.75;;
20454;SDS011;10386;54.314;10.022;2022-09-09T09:38:15;36.17;;;22.13;;
20454;SDS011;10386;54.314;10.022;2022-09-09T09:41:02;36.58;;;21.00;;
20454;SDS011;10386;54.314;10.022;2022-09-09T09:43:34;36.13;;;20.80;;
20454;SDS011;10386;54.314;10.022;2022-09-09T09:46:05;34.90;;;20.13;;
20454;SDS011;10386;54.314;10.022;2022-09-09T09:48:56;29.52;;;19.38;;
20454;SDS011;10386;54.314;10.022;2022-09-09T09:51:32;29.15;;;17.13;;
20454;SDS011;10386;54.314;10.022;2022-09-09T09:56:39;26.10;;;16.20;;
20454;SDS011;10386;54.314;10.022;2022-09-09T09:59:19;22.35;;;15.50;;
20454;SDS011;10386;54.314;10.022;2022-09-09T10:04:46;20.70;;;13.90;;
20454;SDS011;10386;54.314;10.022;2022-09-09T10:07:18;22.95;;;14.52;;
20454;SDS011;10386;54.314;10.022;2022-09-09T10:09:48;23.58;;;14.18;;
20454;SDS011;10386;54.314;10.022;2022-09-09T10:24:15;14.35;;;9.73;;
20454;SDS011;10386;54.314;10.022;2022-09-09T10:27:01;11.90;;;8.88;;
20454;SDS011;10386;54.314;10.022;2022-09-09T10:35:04;14.05;;;7.60;;
20454;SDS011;10386;54.314;10.022;2022-09-09T10:40:34;8.57;;;5.85;;
20454;SDS011;10386;54.314;10.022;2022-09-09T10:43:12;9.13;;;5.50;;
20454;SDS011;10386;54.314;10.022;2022-09-09T10:45:53;6.88;;;4.93;;
20454;SDS011;10386;54.314;10.022;2022-09-09T10:48:31;8.23;;;5.47;;
20454;SDS011;10386;54.314;10.022;2022-09-09T10:51:15;8.70;;;5.55;;
20454;SDS011;10386;54.314;10.022;2022-09-09T10:56:36;5.18;;;3.75;;
20454;SDS011;10386;54.314;10.022;2022-09-09T10:59:07;7.57;;;2.72;;
20454;SDS011;10386;54.314;10.022;2022-09-09T11:02:15;1.60;;;1.50;;
20454;SDS011;10386;54.314;10.022;2022-09-09T11:04:40;2.33;;;1.70;;
20454;SDS011;10386;54.314;10.022;2022-09-09T11:07:22;6.05;;;2.00;;
20454;SDS011;10386;54.314;10.022;2022-09-09T11:09:58;3.70;;;2.10;;
20454;SDS011;10386;54.314;10.022;2022-09-09T11:12:28;3.45;;;2.22;;
20454;SDS011;10386;54.314;10.022;2022-09-09T11:14:59;2.03;;;1.90;;
20454;SDS011;10386;54.314;10.022;2022-09-09T11:17:49;2.00;;;1.80;;
20454;SDS011;10386;54.314;10.022;2022-09-09T11:20:18;4.57;;;1.77;;
20454;SDS011;10386;54.314;10.022;2022-09-09T11:22:54;2.42;;;1.88;;
20454;SDS011;10386;54.314;10.022;2022-09-09T11:25:40;2.45;;;2.20;;
20454;SDS011;10386;54.314;10.022;2022-09-09T11:30:53;3.55;;;1.73;;
20454;SDS011;10386;54.314;10.022;2022-09-09T11:41:51;2.00;;;1.90;;
20454;SDS011;10386;54.314;10.022;2022-09-09T11:44:21;3.60;;;2.00;;
20454;SDS011;10386;54.314;10.022;2022-09-09T11:46:55;1.75;;;1.63;;
20454;SDS011;10386;54.314;10.022;2022-09-09T11:49:28;2.17;;;1.70;;
20454;SDS011;10386;54.314;10.022;2022-09-09T11:52:34;2.08;;;1.60;;
20454;SDS011;10386;54.314;10.022;2022-09-09T11:55:10;2.72;;;1.73;;
20454;SDS011;10386;54.314;10.022;2022-09-09T11:58:02;2.22;;;1.65;;
20454;SDS011;10386;54.314;10.022;2022-09-09T12:00:38;3.75;;;1.70;;
20454;SDS011;10386;54.314;10.022;2022-09-09T12:08:57;2.75;;;1.17;;
20454;SDS011;10386;54.314;10.022;2022-09-09T12:11:31;1.50;;;1.35;;
20454;SDS011;10386;54.314;10.022;2022-09-09T12:13:59;2.30;;;1.40;;
20454;SDS011;10386;54.314;10.022;2022-09-09T12:16:28;7.10;;;1.40;;
20454;SDS011;10386;54.314;10.022;2022-09-09T12:19:13;2.53;;;1.23;;
20454;SDS011;10386;54.314;10.022;2022-09-09T12:22:00;3.13;;;1.35;;
20454;SDS011;10386;54.314;10.022;2022-09-09T12:24:35;5.32;;;1.77;;
20454;SDS011;10386;54.314;10.022;2022-09-09T12:27:14;2.67;;;1.40;;
20454;SDS011;10386;54.314;10.022;2022-09-09T12:32:36;2.90;;;1.23;;
20454;SDS011;10386;54.314;10.022;2022-09-09T12:35:11;3.35;;;1.27;;
20454;SDS011;10386;54.314;10.022;2022-09-09T12:37:50;3.92;;;1.17;;
20454;SDS011;10386;54.314;10.022;2022-09-09T12:40:24;1.58;;;1.20;;
20454;SDS011;10386;54.314;10.022;2022-09-09T12:43:02;2.55;;;1.33;;
20454;SDS011;10386;54.314;10.022;2022-09-09T12:45:50;2.67;;;1.25;;
20454;SDS011;10386;54.314;10.022;2022-09-09T12:48:57;1.10;;;1.10;;
20454;SDS011;10386;54.314;10.022;2022-09-09T12:51:27;1.58;;;1.13;;
20454;SDS011;10386;54.314;10.022;2022-09-09T12:53:57;1.25;;;0.93;;
20454;SDS011;10386;54.314;10.022;2022-09-09T12:56:27;2.03;;;1.00;;
20454;SDS011;10386;54.314;10.022;2022-09-09T12:58:57;3.17;;;1.00;;
20454;SDS011;10386;54.314;10.022;2022-09-09T13:01:29;0.93;;;0.93;;
20454;SDS011;10386;54.314;10.022;2022-09-09T13:03:59;1.85;;;1.20;;
20454;SDS011;10386;54.314;10.022;2022-09-09T13:06:27;2.38;;;1.30;;
20454;SDS011;10386;54.314;10.022;2022-09-09T13:08:56;2.47;;;1.10;;
20454;SDS011;10386;54.314;10.022;2022-09-09T13:11:31;1.25;;;1.15;;
20454;SDS011;10386;54.314;10.022;2022-09-09T13:14:04;4.22;;;1.40;;
20454;SDS011;10386;54.314;10.022;2022-09-09T13:16:33;5.07;;;1.33;;
20454;SDS011;10386;54.314;10.022;2022-09-09T13:19:09;1.52;;;1.10;;
20454;SDS011;10386;54.314;10.022;2022-09-09T13:21:40;3.15;;;1.10;;
20454;SDS011;10386;54.314;10.022;2022-09-09T13:24:20;1.67;;;1.08;;
20454;SDS011;10386;54.314;10.022;2022-09-09T13:26:57;3.15;;;1.00;;
20454;SDS011;10386;54.314;10.022;2022-09-09T13:29:29;1.13;;;0.90;;
20454;SDS011;10386;54.314;10.022;2022-09-09T13:32:15;2.85;;;1.33;;
20454;SDS011;10386;54.314;10.022;2022-09-09T13:37:30;2.05;;;1.00;;
20454;SDS011;10386;54.314;10.022;2022-09-09T13:39:59;1.95;;;0.90;;
20454;SDS011;10386;54.314;10.022;2022-09-09T13:42:28;3.33;;;1.30;;
20454;SDS011;10386;54.314;10.022;2022-09-09T13:44:58;3.50;;;1.40;;
20454;SDS011;10386;54.314;10.022;2022-09-09T13:47:34;1.65;;;1.10;;
20454;SDS011;10386;54.314;10.022;2022-09-09T13:50:22;2.22;;;1.25;;
20454;SDS011;10386;54.314;10.022;2022-09-09T13:52:58;1.10;;;1.00;;
20454;SDS011;10386;54.314;10.022;2022-09-09T13:55:26;6.32;;;1.80;;
20454;SDS011;10386;54.314;10.022;2022-09-09T13:57:58;2.17;;;1.10;;
20454;SDS011;10386;54.314;10.022;2022-09-09T14:00:28;3.65;;;1.40;;
20454;SDS011;10386;54.314;10.022;2022-09-09T14:02:57;3.08;;;1.13;;
20454;SDS011;10386;54.314;10.022;2022-09-09T14:05:24;1.77;;;1.15;;
20454;SDS011;10386;54.314;10.022;2022-09-09T14:07:51;2.20;;;1.63;;
20454;SDS011;10386;54.314;10.022;2022-09-09T14:10:18;1.83;;;1.25;;
20454;SDS011;10386;54.314;10.022;2022-09-09T14:12:45;1.17;;;1.10;;
20454;SDS011;10386;54.314;10.022;2022-09-09T14:15:13;2.60;;;1.42;;
20454;SDS011;10386;54.314;10.022;2022-09-09T14:17:40;4.18;;;1.30;;
20454;SDS011;10386;54.314;10.022;2022-09-09T14:20:07;2.83;;;1.20;;
20454;SDS011;10386;54.314;10.022;2022-09-09T14:22:38;2.58;;;1.00;;
20454;SDS011;10386;54.314;10.022;2022-09-09T14:25:08;2.53;;;1.13;;
20454;SDS011;10386;54.314;10.022;2022-09-09T14:27:35;6.60;;;1.50;;
20454;SDS011;10386;54.314;10.022;2022-09-09T14:30:03;2.38;;;1.20;;
20454;SDS011;10386;54.314;10.022;2022-09-09T14:32:30;2.22;;;1.38;;
20454;SDS011;10386;54.314;10.022;2022-09-09T14:34:58;4.22;;;1.20;;
20454;SDS011;10386;54.314;10.022;2022-09-09T14:37:26;3.03;;;1.30;;
20454;SDS011;10386;54.314;10.022;2022-09-09T14:39:53;4.95;;;1.40;;
20454;SDS011;10386;54.314;10.022;2022-09-09T14:42:21;3.00;;;1.30;;
20454;SDS011;10386;54.314;10.022;2022-09-09T14:44:48;4.65;;;1.20;;
20454;SDS011;10386;54.314;10.022;2022-09-09T14:47:15;2.00;;;1.20;;
20454;SDS011;10386;54.314;10.022;2022-09-09T14:49:42;4.13;;;1.50;;
20454;SDS011;10386;54.314;10.022;2022-09-09T14:52:12;1.70;;;1.58;;
20454;SDS011;10386;54.314;10.022;2022-09-09T14:54:39;1.98;;;1.15;;
20454;SDS011;10386;54.314;10.022;2022-09-09T14:57:06;2.35;;;2.15;;
20454;SDS011;10386;54.314;10.022;2022-09-09T14:59:33;5.13;;;2.30;;
20454;SDS011;10386;54.314;10.022;2022-09-09T15:02:00;2.65;;;1.50;;
20454;SDS011;10386;54.314;10.022;2022-09-09T15:04:30;2.33;;;1.50;;
20454;SDS011;10386;54.314;10.022;2022-09-09T15:06:57;4.72;;;1.95;;
20454;SDS011;10386;54.314;10.022;2022-09-09T15:09:25;5.78;;;1.67;;
20454;SDS011;10386;54.314;10.022;2022-09-09T15:11:53;9.80;;;2.35;;
20454;SDS011;10386;54.314;10.022;2022-09-09T15:14:20;7.90;;;2.13;;
20454;SDS011;10386;54.314;10.022;2022-09-09T15:16:52;8.18;;;2.13;;
20454;SDS011;10386;54.314;10.022;2022-09-09T15:19:18;5.50;;;2.20;;
20454;SDS011;10386;54.314;10.022;2022-09-09T15:21:45;5.75;;;1.92;;
20454;SDS011;10386;54.314;10.022;2022-09-09T15:24:12;3.42;;;1.55;;
20454;SDS011;10386;54.314;10.022;2022-09-09T15:26:39;8.53;;;2.10;;
20454;SDS011;10386;54.314;10.022;2022-09-09T15:29:06;13.30;;;2.33;;
20454;SDS011;10386;54.314;10.022;2022-09-09T15:31:34;8.10;;;2.37;;
20454;SDS011;10386;54.314;10.022;2022-09-09T15:34:03;12.90;;;2.20;;
20454;SDS011;10386;54.314;10.022;2022-09-09T15:39:06;1.67;;;0.90;;
20454;SDS011;10386;54.314;10.022;2022-09-09T15:41:34;2.00;;;1.00;;
20454;SDS011;10386;54.314;10.022;2022-09-09T15:44:01;3.90;;;1.53;;
20454;SDS011;10386;54.314;10.022;2022-09-09T15:49:03;2.83;;;1.17;;
20454;SDS011;10386;54.314;10.022;2022-09-09T15:51:37;1.17;;;1.10;;
20454;SDS011;10386;54.314;10.022;2022-09-09T15:54:10;1.03;;;1.03;;
20454;SDS011;10386;54.314;10.022;2022-09-09T15:56:39;1.03;;;1.00;;
20454;SDS011;10386;54.314;10.022;2022-09-09T15:59:06;3.50;;;1.27;;
20454;SDS011;10386;54.314;10.022;2022-09-09T16:01:33;1.10;;;1.10;;
20454;SDS011;10386;54.314;10.022;2022-09-09T16:04:01;1.60;;;1.10;;
20454;SDS011;10386;54.314;10.022;2022-09-09T16:06:29;5.50;;;1.40;;
20454;SDS011;10386;54.314;10.022;2022-09-09T16:08:57;1.67;;;1.57;;
20454;SDS011;10386;54.314;10.022;2022-09-09T16:11:25;1.60;;;1.50;;
20454;SDS011;10386;54.314;10.022;2022-09-09T16:13:55;2.00;;;1.30;;
20454;SDS011;10386;54.314;10.022;2022-09-09T16:16:23;1.73;;;1.40;;
20454;SDS011;10386;54.314;10.022;2022-09-09T16:18:52;1.90;;;1.30;;
20454;SDS011;10386;54.314;10.022;2022-09-09T16:23:51;2.77;;;1.53;;
20454;SDS011;10386;54.314;10.022;2022-09-09T16:26:19;1.10;;;1.07;;
20454;SDS011;10386;54.314;10.022;2022-09-09T16:28:46;2.07;;;1.60;;
20454;SDS011;10386;54.314;10.022;2022-09-09T16:31:15;3.60;;;1.60;;
20454;SDS011;10386;54.314;10.022;2022-09-09T16:33:44;1.50;;;1.40;;
20454;SDS011;10386;54.314;10.022;2022-09-09T16:36:12;2.40;;;1.33;;
20454;SDS011;10386;54.314;10.022;2022-09-09T16:38:40;1.20;;;1.20;;